sensor_id;sensor_type;location;lat;lon;timestamp;pressure;altitude;pressure_sealevel;temperature;humidity
73073;BME280;61260;51.090;-1.786;2022-11-15T00:02:08;99679.80;;;9.28;93.85
73073;BME280;61260;51.090;-1.786;2022-11-15T00:04:38;99674.09;;;9.31;93.88
73073;BME280;61260;51.090;-1.786;2022-11-15T00:07:07;99673.62;;;9.33;94.05
73073;BME280;61260;51.090;-1.786;2022-11-15T00:09:37;99668.11;;;9.37;94.01
73073;BME280;61260;51.090;-1.786;2022-11-15T00:12:08;99660.80;;;9.42;94.27
73073;BME280;61260;51.090;-1.786;2022-11-15T00:14:38;99656.34;;;9.49;94.52
73073;BME280;61260;51.090;-1.786;2022-11-15T00:17:11;99644.93;;;9.58;94.59
73073;BME280;61260;51.090;-1.786;2022-11-15T00:19:41;99639.98;;;9.68;94.63
73073;BME280;61260;51.090;-1.786;2022-11-15T00:22:11;99634.29;;;9.76;94.61
73073;BME280;61260;51.090;-1.786;2022-11-15T00:24:41;99633.99;;;9.81;94.74
73073;BME280;61260;51.090;-1.786;2022-11-15T00:27:11;99626.02;;;9.84;94.72
73073;BME280;61260;51.090;-1.786;2022-11-15T00:29:41;99615.59;;;9.87;94.74
73073;BME280;61260;51.090;-1.786;2022-11-15T00:32:12;99608.69;;;9.90;94.78
73073;BME280;61260;51.090;-1.786;2022-11-15T00:34:42;99601.66;;;9.93;94.71
73073;BME280;61260;51.090;-1.786;2022-11-15T00:37:11;99595.13;;;9.98;94.74
73073;BME280;61260;51.090;-1.786;2022-11-15T00:39:41;99587.71;;;10.05;94.58
73073;BME280;61260;51.090;-1.786;2022-11-15T00:42:11;99580.28;;;10.08;94.56
73073;BME280;61260;51.090;-1.786;2022-11-15T00:44:41;99573.21;;;10.14;94.52
73073;BME280;61260;51.090;-1.786;2022-11-15T00:47:11;99566.38;;;10.20;94.56
73073;BME280;61260;51.090;-1.786;2022-11-15T00:49:40;99558.81;;;10.25;94.50
73073;BME280;61260;51.090;-1.786;2022-11-15T00:52:10;99552.92;;;10.32;94.30
73073;BME280;61260;51.090;-1.786;2022-11-15T00:54:39;99549.35;;;10.38;94.27
73073;BME280;61260;51.090;-1.786;2022-11-15T00:57:09;99541.27;;;10.45;94.25
73073;BME280;61260;51.090;-1.786;2022-11-15T00:59:39;99530.55;;;10.54;94.08
73073;BME280;61260;51.090;-1.786;2022-11-15T01:02:08;99527.02;;;10.62;94.14
73073;BME280;61260;51.090;-1.786;2022-11-15T01:04:38;99518.12;;;10.69;93.99
73073;BME280;61260;51.090;-1.786;2022-11-15T01:07:08;99510.19;;;10.75;93.93
73073;BME280;61260;51.090;-1.786;2022-11-15T01:09:38;99502.63;;;10.82;93.91
73073;BME280;61260;51.090;-1.786;2022-11-15T01:12:07;99498.74;;;10.90;93.74
73073;BME280;61260;51.090;-1.786;2022-11-15T01:14:37;99491.53;;;11.00;93.48
73073;BME280;61260;51.090;-1.786;2022-11-15T01:17:07;99483.16;;;11.05;93.43
73073;BME280;61260;51.090;-1.786;2022-11-15T01:19:36;99478.16;;;11.11;93.29
73073;BME280;61260;51.090;-1.786;2022-11-15T01:22:06;99475.81;;;11.19;93.11
73073;BME280;61260;51.090;-1.786;2022-11-15T01:24:36;99475.90;;;11.26;92.89
73073;BME280;61260;51.090;-1.786;2022-11-15T01:27:06;99480.49;;;11.32;92.85
73073;BME280;61260;51.090;-1.786;2022-11-15T01:29:35;99475.55;;;11.37;92.95
73073;BME280;61260;51.090;-1.786;2022-11-15T01:32:05;99468.84;;;11.37;93.56
73073;BME280;61260;51.090;-1.786;2022-11-15T01:34:35;99471.69;;;11.34;94.07
73073;BME280;61260;51.090;-1.786;2022-11-15T01:37:05;99466.34;;;11.30;94.42
73073;BME280;61260;51.090;-1.786;2022-11-15T01:39:34;99466.31;;;11.27;95.34
73073;BME280;61260;51.090;-1.786;2022-11-15T01:42:04;99454.21;;;11.21;96.15
73073;BME280;61260;51.090;-1.786;2022-11-15T01:44:40;99453.52;;;11.13;96.99
73073;BME280;61260;51.090;-1.786;2022-11-15T01:47:15;99452.33;;;11.06;97.78
73073;BME280;61260;51.090;-1.786;2022-11-15T01:49:53;99445.89;;;11.01;98.22
73073;BME280;61260;51.090;-1.786;2022-11-15T01:52:27;99434.85;;;10.98;98.39
73073;BME280;61260;51.090;-1.786;2022-11-15T01:55:05;99423.34;;;10.95;98.66
73073;BME280;61260;51.090;-1.786;2022-11-15T01:57:37;99422.06;;;10.92;99.01
73073;BME280;61260;51.090;-1.786;2022-11-15T02:00:09;99410.18;;;10.91;99.41
73073;BME280;61260;51.090;-1.786;2022-11-15T02:02:39;99400.31;;;10.88;99.74
73073;BME280;61260;51.090;-1.786;2022-11-15T02:05:10;99395.90;;;10.85;99.93
73073;BME280;61260;51.090;-1.786;2022-11-15T02:07:40;99392.76;;;10.83;100.00
73073;BME280;61260;51.090;-1.786;2022-11-15T02:10:13;99386.10;;;10.81;100.00
73073;BME280;61260;51.090;-1.786;2022-11-15T02:12:47;99375.31;;;10.79;100.00
73073;BME280;61260;51.090;-1.786;2022-11-15T02:15:17;99377.18;;;10.78;100.00
73073;BME280;61260;51.090;-1.786;2022-11-15T02:18:02;99378.73;;;10.77;100.00
73073;BME280;61260;51.090;-1.786;2022-11-15T02:20:52;99366.87;;;10.76;100.00
73073;BME280;61260;51.090;-1.786;2022-11-15T02:26:56;99359.30;;;10.75;100.00
73073;BME280;61260;51.090;-1.786;2022-11-15T02:29:44;99352.74;;;10.76;100.00
73073;BME280;61260;51.090;-1.786;2022-11-15T02:32:25;99341.05;;;10.77;100.00
73073;BME280;61260;51.090;-1.786;2022-11-15T02:35:15;99329.36;;;10.77;100.00
73073;BME280;61260;51.090;-1.786;2022-11-15T02:37:54;99319.85;;;10.78;100.00
73073;BME280;61260;51.090;-1.786;2022-11-15T02:40:32;99316.26;;;10.79;100.00
73073;BME280;61260;51.090;-1.786;2022-11-15T02:43:07;99314.02;;;10.80;100.00
73073;BME280;61260;51.090;-1.786;2022-11-15T02:46:06;99307.93;;;10.82;100.00
73073;BME280;61260;51.090;-1.786;2022-11-15T02:48:39;99301.84;;;10.81;100.00
73073;BME280;61260;51.090;-1.786;2022-11-15T02:51:11;99301.61;;;10.81;100.00
73073;BME280;61260;51.090;-1.786;2022-11-15T02:53:41;99295.30;;;10.83;100.00
73073;BME280;61260;51.090;-1.786;2022-11-15T02:56:12;99288.15;;;10.85;100.00
73073;BME280;61260;51.090;-1.786;2022-11-15T02:58:52;99279.31;;;10.83;100.00
73073;BME280;61260;51.090;-1.786;2022-11-15T03:01:38;99279.62;;;10.83;100.00
73073;BME280;61260;51.090;-1.786;2022-11-15T03:04:20;99278.92;;;10.84;100.00
73073;BME280;61260;51.090;-1.786;2022-11-15T03:07:00;99271.36;;;10.84;100.00
73073;BME280;61260;51.090;-1.786;2022-11-15T03:09:37;99270.64;;;10.82;100.00
73073;BME280;61260;51.090;-1.786;2022-11-15T03:12:11;99260.48;;;10.81;100.00
73073;BME280;61260;51.090;-1.786;2022-11-15T03:14:50;99258.85;;;10.82;100.00
73073;BME280;61260;51.090;-1.786;2022-11-15T03:17:25;99259.02;;;10.82;100.00
73073;BME280;61260;51.090;-1.786;2022-11-15T03:19:58;99247.08;;;10.82;100.00
73073;BME280;61260;51.090;-1.786;2022-11-15T03:22:30;99241.92;;;10.81;100.00
73073;BME280;61260;51.090;-1.786;2022-11-15T03:25:06;99234.59;;;10.82;100.00
73073;BME280;61260;51.090;-1.786;2022-11-15T03:27:40;99231.46;;;10.81;100.00
73073;BME280;61260;51.090;-1.786;2022-11-15T03:30:13;99217.72;;;10.81;100.00
73073;BME280;61260;51.090;-1.786;2022-11-15T03:32:47;99212.27;;;10.81;100.00
73073;BME280;61260;51.090;-1.786;2022-11-15T03:35:21;99205.26;;;10.82;100.00
73073;BME280;61260;51.090;-1.786;2022-11-15T03:37:51;99206.42;;;10.83;100.00
73073;BME280;61260;51.090;-1.786;2022-11-15T03:40:29;99199.40;;;10.82;100.00
73073;BME280;61260;51.090;-1.786;2022-11-15T03:43:06;99194.96;;;10.83;100.00
73073;BME280;61260;51.090;-1.786;2022-11-15T03:45:43;99197.07;;;10.83;100.00
73073;BME280;61260;51.090;-1.786;2022-11-15T03:48:18;99183.28;;;10.86;100.00
73073;BME280;61260;51.090;-1.786;2022-11-15T03:50:49;99167.66;;;10.85;100.00
73073;BME280;61260;51.090;-1.786;2022-11-15T03:53:20;99164.23;;;10.85;100.00
73073;BME280;61260;51.090;-1.786;2022-11-15T03:55:49;99152.70;;;10.86;100.00
73073;BME280;61260;51.090;-1.786;2022-11-15T03:58:19;99143.26;;;10.86;100.00
73073;BME280;61260;51.090;-1.786;2022-11-15T04:00:49;99142.92;;;10.86;100.00
73073;BME280;61260;51.090;-1.786;2022-11-15T04:03:19;99131.53;;;10.84;100.00
73073;BME280;61260;51.090;-1.786;2022-11-15T04:05:52;99122.95;;;10.84;100.00
73073;BME280;61260;51.090;-1.786;2022-11-15T04:08:22;99116.86;;;10.83;100.00
73073;BME280;61260;51.090;-1.786;2022-11-15T04:10:53;99109.38;;;10.84;100.00
73073;BME280;61260;51.090;-1.786;2022-11-15T04:13:22;99104.45;;;10.83;100.00
73073;BME280;61260;51.090;-1.786;2022-11-15T04:15:52;99099.14;;;10.84;100.00
73073;BME280;61260;51.090;-1.786;2022-11-15T04:18:22;99102.12;;;10.84;100.00
73073;BME280;61260;51.090;-1.786;2022-11-15T04:20:52;99097.97;;;10.83;100.00
73073;BME280;61260;51.090;-1.786;2022-11-15T04:23:39;99088.67;;;10.81;100.00
73073;BME280;61260;51.090;-1.786;2022-11-15T04:26:29;99087.98;;;10.81;100.00
73073;BME280;61260;51.090;-1.786;2022-11-15T04:28:58;99088.36;;;10.80;100.00
73073;BME280;61260;51.090;-1.786;2022-11-15T04:31:48;99079.55;;;10.79;100.00
73073;BME280;61260;51.090;-1.786;2022-11-15T04:34:17;99077.27;;;10.78;100.00
73073;BME280;61260;51.090;-1.786;2022-11-15T04:36:47;99073.30;;;10.79;100.00
73073;BME280;61260;51.090;-1.786;2022-11-15T04:39:34;99067.13;;;10.78;100.00
73073;BME280;61260;51.090;-1.786;2022-11-15T04:42:04;99061.05;;;10.79;100.00
73073;BME280;61260;51.090;-1.786;2022-11-15T04:44:33;99055.35;;;10.79;100.00
73073;BME280;61260;51.090;-1.786;2022-11-15T04:47:03;99054.73;;;10.81;100.00
73073;BME280;61260;51.090;-1.786;2022-11-15T04:49:34;99055.44;;;10.82;100.00
73073;BME280;61260;51.090;-1.786;2022-11-15T04:52:04;99054.04;;;10.83;100.00
73073;BME280;61260;51.090;-1.786;2022-11-15T04:54:33;99050.69;;;10.83;100.00
73073;BME280;61260;51.090;-1.786;2022-11-15T04:57:03;99046.09;;;10.83;100.00
73073;BME280;61260;51.090;-1.786;2022-11-15T04:59:33;99035.54;;;10.83;100.00
73073;BME280;61260;51.090;-1.786;2022-11-15T05:02:02;99036.33;;;10.83;100.00
73073;BME280;61260;51.090;-1.786;2022-11-15T05:04:32;99028.20;;;10.82;100.00
73073;BME280;61260;51.090;-1.786;2022-11-15T05:07:02;99018.77;;;10.81;100.00
73073;BME280;61260;51.090;-1.786;2022-11-15T05:09:33;99018.38;;;10.80;100.00
73073;BME280;61260;51.090;-1.786;2022-11-15T05:12:03;99010.02;;;10.80;100.00
73073;BME280;61260;51.090;-1.786;2022-11-15T05:14:33;99008.31;;;10.80;100.00
73073;BME280;61260;51.090;-1.786;2022-11-15T05:17:02;99004.80;;;10.81;100.00
73073;BME280;61260;51.090;-1.786;2022-11-15T05:19:32;98998.80;;;10.80;100.00
73073;BME280;61260;51.090;-1.786;2022-11-15T05:22:02;98997.06;;;10.80;100.00
73073;BME280;61260;51.090;-1.786;2022-11-15T05:24:31;98992.00;;;10.80;100.00
73073;BME280;61260;51.090;-1.786;2022-11-15T05:27:01;98987.48;;;10.82;100.00
73073;BME280;61260;51.090;-1.786;2022-11-15T05:29:31;98984.68;;;10.82;100.00
73073;BME280;61260;51.090;-1.786;2022-11-15T05:32:01;98973.61;;;10.84;100.00
73073;BME280;61260;51.090;-1.786;2022-11-15T05:34:33;98967.29;;;10.84;100.00
73073;BME280;61260;51.090;-1.786;2022-11-15T05:37:04;98967.37;;;10.85;100.00
73073;BME280;61260;51.090;-1.786;2022-11-15T05:39:34;98960.59;;;10.86;100.00
73073;BME280;61260;51.090;-1.786;2022-11-15T05:42:08;98963.77;;;10.88;100.00
73073;BME280;61260;51.090;-1.786;2022-11-15T05:44:40;98952.70;;;10.89;100.00
73073;BME280;61260;51.090;-1.786;2022-11-15T05:47:13;98947.81;;;10.91;100.00
73073;BME280;61260;51.090;-1.786;2022-11-15T05:49:46;98947.59;;;10.94;100.00
73073;BME280;61260;51.090;-1.786;2022-11-15T05:52:21;98942.99;;;10.97;100.00
73073;BME280;61260;51.090;-1.786;2022-11-15T05:54:52;98935.74;;;11.02;100.00
73073;BME280;61260;51.090;-1.786;2022-11-15T05:57:22;98930.83;;;11.04;100.00
73073;BME280;61260;51.090;-1.786;2022-11-15T05:59:55;98931.07;;;11.07;100.00
73073;BME280;61260;51.090;-1.786;2022-11-15T06:02:25;98923.21;;;11.11;100.00
73073;BME280;61260;51.090;-1.786;2022-11-15T06:04:55;98921.81;;;11.14;100.00
73073;BME280;61260;51.090;-1.786;2022-11-15T06:07:25;98918.23;;;11.18;100.00
73073;BME280;61260;51.090;-1.786;2022-11-15T06:09:55;98913.54;;;11.21;100.00
73073;BME280;61260;51.090;-1.786;2022-11-15T06:12:25;98913.55;;;11.24;100.00
73073;BME280;61260;51.090;-1.786;2022-11-15T06:14:55;98901.31;;;11.28;100.00
73073;BME280;61260;51.090;-1.786;2022-11-15T06:17:24;98902.40;;;11.32;100.00
73073;BME280;61260;51.090;-1.786;2022-11-15T06:19:54;98891.85;;;11.34;100.00
73073;BME280;61260;51.090;-1.786;2022-11-15T06:22:24;98889.44;;;11.36;100.00
73073;BME280;61260;51.090;-1.786;2022-11-15T06:24:54;98888.74;;;11.37;100.00
73073;BME280;61260;51.090;-1.786;2022-11-15T06:27:23;98878.50;;;11.40;100.00
73073;BME280;61260;51.090;-1.786;2022-11-15T06:29:53;98878.66;;;11.41;100.00
73073;BME280;61260;51.090;-1.786;2022-11-15T06:32:23;98873.35;;;11.41;100.00
73073;BME280;61260;51.090;-1.786;2022-11-15T06:34:52;98877.16;;;11.43;100.00
73073;BME280;61260;51.090;-1.786;2022-11-15T06:37:22;98872.97;;;11.44;100.00
73073;BME280;61260;51.090;-1.786;2022-11-15T06:39:52;98876.80;;;11.45;100.00
73073;BME280;61260;51.090;-1.786;2022-11-15T06:42:21;98870.24;;;11.46;100.00
73073;BME280;61260;51.090;-1.786;2022-11-15T06:44:51;98868.91;;;11.47;100.00
73073;BME280;61260;51.090;-1.786;2022-11-15T06:47:21;98860.63;;;11.47;100.00
73073;BME280;61260;51.090;-1.786;2022-11-15T06:49:50;98859.08;;;11.47;100.00
73073;BME280;61260;51.090;-1.786;2022-11-15T06:52:20;98855.48;;;11.48;100.00
73073;BME280;61260;51.090;-1.786;2022-11-15T06:54:50;98856.65;;;11.48;100.00
73073;BME280;61260;51.090;-1.786;2022-11-15T06:57:20;98853.67;;;11.48;100.00
73073;BME280;61260;51.090;-1.786;2022-11-15T06:59:49;98846.18;;;11.48;100.00
73073;BME280;61260;51.090;-1.786;2022-11-15T07:02:19;98842.90;;;11.48;100.00
73073;BME280;61260;51.090;-1.786;2022-11-15T07:04:49;98841.81;;;11.48;100.00
73073;BME280;61260;51.090;-1.786;2022-11-15T07:07:18;98830.95;;;11.48;100.00
73073;BME280;61260;51.090;-1.786;2022-11-15T07:09:51;98822.84;;;11.47;100.00
73073;BME280;61260;51.090;-1.786;2022-11-15T07:12:21;98819.16;;;11.46;100.00
73073;BME280;61260;51.090;-1.786;2022-11-15T07:14:50;98817.38;;;11.47;100.00
73073;BME280;61260;51.090;-1.786;2022-11-15T07:17:20;98819.86;;;11.47;100.00
73073;BME280;61260;51.090;-1.786;2022-11-15T07:19:50;98810.65;;;11.47;100.00
73073;BME280;61260;51.090;-1.786;2022-11-15T07:22:19;98801.82;;;11.46;100.00
73073;BME280;61260;51.090;-1.786;2022-11-15T07:24:49;98800.73;;;11.47;100.00
73073;BME280;61260;51.090;-1.786;2022-11-15T07:27:19;98802.05;;;11.49;100.00
73073;BME280;61260;51.090;-1.786;2022-11-15T07:29:48;98798.54;;;11.49;100.00
73073;BME280;61260;51.090;-1.786;2022-11-15T07:32:18;98793.77;;;11.50;100.00
73073;BME280;61260;51.090;-1.786;2022-11-15T07:34:48;98786.66;;;11.50;100.00
73073;BME280;61260;51.090;-1.786;2022-11-15T07:37:17;98785.71;;;11.52;100.00
73073;BME280;61260;51.090;-1.786;2022-11-15T07:39:47;98778.29;;;11.53;100.00
73073;BME280;61260;51.090;-1.786;2022-11-15T07:42:17;98771.27;;;11.55;100.00
73073;BME280;61260;51.090;-1.786;2022-11-15T07:45:05;98775.10;;;11.55;100.00
73073;BME280;61260;51.090;-1.786;2022-11-15T07:47:35;98766.27;;;11.55;100.00
73073;BME280;61260;51.090;-1.786;2022-11-15T07:50:06;98763.63;;;11.55;100.00
73073;BME280;61260;51.090;-1.786;2022-11-15T07:52:35;98756.99;;;11.56;100.00
73073;BME280;61260;51.090;-1.786;2022-11-15T07:55:07;98759.11;;;11.56;100.00
73073;BME280;61260;51.090;-1.786;2022-11-15T07:57:36;98754.10;;;11.56;100.00
73073;BME280;61260;51.090;-1.786;2022-11-15T08:00:08;98761.67;;;11.56;100.00
73073;BME280;61260;51.090;-1.786;2022-11-15T08:02:38;98754.41;;;11.57;100.00
73073;BME280;61260;51.090;-1.786;2022-11-15T08:05:08;98753.63;;;11.57;100.00
73073;BME280;61260;51.090;-1.786;2022-11-15T08:07:38;98757.61;;;11.58;100.00
73073;BME280;61260;51.090;-1.786;2022-11-15T08:10:09;98750.03;;;11.59;100.00
73073;BME280;61260;51.090;-1.786;2022-11-15T08:12:40;98746.36;;;11.59;100.00
73073;BME280;61260;51.090;-1.786;2022-11-15T08:15:10;98749.64;;;11.60;100.00
73073;BME280;61260;51.090;-1.786;2022-11-15T08:17:40;98743.94;;;11.62;100.00
73073;BME280;61260;51.090;-1.786;2022-11-15T08:20:11;98750.27;;;11.63;100.00
73073;BME280;61260;51.090;-1.786;2022-11-15T08:22:41;98742.23;;;11.64;100.00
73073;BME280;61260;51.090;-1.786;2022-11-15T08:25:11;98748.08;;;11.65;100.00
73073;BME280;61260;51.090;-1.786;2022-11-15T08:27:40;98742.77;;;11.66;100.00
73073;BME280;61260;51.090;-1.786;2022-11-15T08:30:12;98738.55;;;11.68;100.00
73073;BME280;61260;51.090;-1.786;2022-11-15T08:32:41;98733.46;;;11.68;100.00
73073;BME280;61260;51.090;-1.786;2022-11-15T08:35:11;98737.44;;;11.69;100.00
73073;BME280;61260;51.090;-1.786;2022-11-15T08:37:41;98728.05;;;11.72;100.00
73073;BME280;61260;51.090;-1.786;2022-11-15T08:40:11;98730.61;;;11.74;100.00
73073;BME280;61260;51.090;-1.786;2022-11-15T08:42:42;98735.61;;;11.76;100.00
73073;BME280;61260;51.090;-1.786;2022-11-15T08:45:12;98740.61;;;11.76;100.00
73073;BME280;61260;51.090;-1.786;2022-11-15T08:47:42;98743.42;;;11.77;100.00
73073;BME280;61260;51.090;-1.786;2022-11-15T08:50:11;98737.80;;;11.77;100.00
73073;BME280;61260;51.090;-1.786;2022-11-15T08:52:41;98734.29;;;11.75;100.00
73073;BME280;61260;51.090;-1.786;2022-11-15T08:55:11;98716.79;;;11.75;100.00
73073;BME280;61260;51.090;-1.786;2022-11-15T08:57:41;98715.54;;;11.75;100.00
73073;BME280;61260;51.090;-1.786;2022-11-15T09:00:13;98699.52;;;11.75;100.00
73073;BME280;61260;51.090;-1.786;2022-11-15T09:02:43;98688.19;;;11.74;100.00
73073;BME280;61260;51.090;-1.786;2022-11-15T09:05:12;98685.53;;;11.74;100.00
73073;BME280;61260;51.090;-1.786;2022-11-15T09:07:43;98678.59;;;11.74;100.00
73073;BME280;61260;51.090;-1.786;2022-11-15T09:10:14;98678.13;;;11.74;100.00
73073;BME280;61260;51.090;-1.786;2022-11-15T09:12:43;98678.33;;;11.76;100.00
73073;BME280;61260;51.090;-1.786;2022-11-15T09:15:17;98678.49;;;11.77;100.00
73073;BME280;61260;51.090;-1.786;2022-11-15T09:17:48;98668.02;;;11.79;100.00
73073;BME280;61260;51.090;-1.786;2022-11-15T09:20:18;98661.46;;;11.81;100.00
73073;BME280;61260;51.090;-1.786;2022-11-15T09:22:47;98655.36;;;11.82;100.00
73073;BME280;61260;51.090;-1.786;2022-11-15T09:25:17;98658.56;;;11.83;100.00
73073;BME280;61260;51.090;-1.786;2022-11-15T09:27:47;98654.73;;;11.83;100.00
73073;BME280;61260;51.090;-1.786;2022-11-15T09:30:17;98651.13;;;11.84;100.00
73073;BME280;61260;51.090;-1.786;2022-11-15T09:32:47;98640.73;;;11.85;100.00
73073;BME280;61260;51.090;-1.786;2022-11-15T09:35:17;98635.17;;;11.85;100.00
73073;BME280;61260;51.090;-1.786;2022-11-15T09:37:47;98631.50;;;11.86;100.00
73073;BME280;61260;51.090;-1.786;2022-11-15T09:40:17;98631.48;;;11.88;100.00
73073;BME280;61260;51.090;-1.786;2022-11-15T09:43:17;98627.80;;;11.90;100.00
73073;BME280;61260;51.090;-1.786;2022-11-15T09:46:01;98623.65;;;11.91;100.00
73073;BME280;61260;51.090;-1.786;2022-11-15T09:48:49;98608.48;;;11.92;100.00
73073;BME280;61260;51.090;-1.786;2022-11-15T09:51:27;98600.02;;;11.93;100.00
73073;BME280;61260;51.090;-1.786;2022-11-15T09:54:03;98591.02;;;11.95;100.00
73073;BME280;61260;51.090;-1.786;2022-11-15T09:56:37;98592.58;;;11.98;100.00
73073;BME280;61260;51.090;-1.786;2022-11-15T09:59:22;98584.44;;;12.01;100.00
73073;BME280;61260;51.090;-1.786;2022-11-15T10:01:59;98592.94;;;12.04;100.00
73073;BME280;61260;51.090;-1.786;2022-11-15T10:04:32;98585.42;;;12.06;100.00
73073;BME280;61260;51.090;-1.786;2022-11-15T10:07:08;98580.47;;;12.09;100.00
73073;BME280;61260;51.090;-1.786;2022-11-15T10:09:45;98562.23;;;12.11;100.00
73073;BME280;61260;51.090;-1.786;2022-11-15T10:12:17;98562.39;;;12.11;100.00
73073;BME280;61260;51.090;-1.786;2022-11-15T10:14:48;98561.60;;;12.11;100.00
73073;BME280;61260;51.090;-1.786;2022-11-15T10:17:44;98557.16;;;12.11;100.00
73073;BME280;61260;51.090;-1.786;2022-11-15T10:20:23;98548.30;;;12.13;100.00
73073;BME280;61260;51.090;-1.786;2022-11-15T10:22:55;98539.31;;;12.13;100.00
73073;BME280;61260;51.090;-1.786;2022-11-15T10:25:27;98530.93;;;12.15;100.00
73073;BME280;61260;51.090;-1.786;2022-11-15T10:27:59;98530.52;;;12.19;100.00
73073;BME280;61260;51.090;-1.786;2022-11-15T10:30:36;98525.49;;;12.21;100.00
73073;BME280;61260;51.090;-1.786;2022-11-15T10:33:20;98522.34;;;12.24;100.00
73073;BME280;61260;51.090;-1.786;2022-11-15T10:36:16;98511.11;;;12.28;100.00
73073;BME280;61260;51.090;-1.786;2022-11-15T10:38:57;98517.79;;;12.35;100.00
73073;BME280;61260;51.090;-1.786;2022-11-15T10:41:41;98506.84;;;12.42;100.00
73073;BME280;61260;51.090;-1.786;2022-11-15T10:44:28;98507.97;;;12.47;100.00
73073;BME280;61260;51.090;-1.786;2022-11-15T10:47:25;98499.57;;;12.50;100.00
73073;BME280;61260;51.090;-1.786;2022-11-15T10:50:03;98500.48;;;12.53;100.00
73073;BME280;61260;51.090;-1.786;2022-11-15T10:52:35;98501.86;;;12.57;100.00
73073;BME280;61260;51.090;-1.786;2022-11-15T10:55:23;98483.51;;;12.60;100.00
73073;BME280;61260;51.090;-1.786;2022-11-15T10:57:55;98489.88;;;12.65;100.00
73073;BME280;61260;51.090;-1.786;2022-11-15T11:00:33;98501.27;;;12.69;100.00
73073;BME280;61260;51.090;-1.786;2022-11-15T11:03:06;98486.83;;;12.72;100.00
73073;BME280;61260;51.090;-1.786;2022-11-15T11:05:39;98501.64;;;12.71;100.00
73073;BME280;61260;51.090;-1.786;2022-11-15T11:08:23;98503.15;;;12.67;100.00
73073;BME280;61260;51.090;-1.786;2022-11-15T11:10:58;98492.48;;;12.63;100.00
73073;BME280;61260;51.090;-1.786;2022-11-15T11:13:30;98480.25;;;12.65;100.00
73073;BME280;61260;51.090;-1.786;2022-11-15T11:16:21;98472.86;;;12.75;100.00
73073;BME280;61260;51.090;-1.786;2022-11-15T11:19:01;98479.25;;;12.83;100.00
73073;BME280;61260;51.090;-1.786;2022-11-15T11:21:41;98479.25;;;12.84;100.00
73073;BME280;61260;51.090;-1.786;2022-11-15T11:24:21;98489.52;;;12.89;100.00
73073;BME280;61260;51.090;-1.786;2022-11-15T11:27:07;98487.45;;;12.94;100.00
73073;BME280;61260;51.090;-1.786;2022-11-15T11:29:48;98495.77;;;12.99;100.00
73073;BME280;61260;51.090;-1.786;2022-11-15T11:32:33;98500.48;;;12.97;100.00
73073;BME280;61260;51.090;-1.786;2022-11-15T11:35:08;98504.26;;;13.03;100.00
73073;BME280;61260;51.090;-1.786;2022-11-15T11:37:46;98514.69;;;13.15;100.00
73073;BME280;61260;51.090;-1.786;2022-11-15T11:40:24;98528.45;;;13.16;100.00
73073;BME280;61260;51.090;-1.786;2022-11-15T11:43:02;98526.41;;;13.05;100.00
73073;BME280;61260;51.090;-1.786;2022-11-15T11:46:00;98525.59;;;13.00;100.00
73073;BME280;61260;51.090;-1.786;2022-11-15T11:48:42;98531.09;;;12.98;100.00
73073;BME280;61260;51.090;-1.786;2022-11-15T11:51:17;98535.05;;;13.01;100.00
73073;BME280;61260;51.090;-1.786;2022-11-15T11:53:52;98538.29;;;13.19;100.00
73073;BME280;61260;51.090;-1.786;2022-11-15T11:56:31;98536.43;;;13.30;100.00
73073;BME280;61260;51.090;-1.786;2022-11-15T11:59:07;98530.51;;;13.40;100.00
73073;BME280;61260;51.090;-1.786;2022-11-15T12:01:44;98538.16;;;13.42;100.00
73073;BME280;61260;51.090;-1.786;2022-11-15T12:04:17;98550.02;;;13.40;100.00
73073;BME280;61260;51.090;-1.786;2022-11-15T12:06:55;98548.89;;;13.30;100.00
73073;BME280;61260;51.090;-1.786;2022-11-15T12:09:38;98557.36;;;13.23;100.00
73073;BME280;61260;51.090;-1.786;2022-11-15T12:12:12;98563.52;;;13.25;100.00
73073;BME280;61260;51.090;-1.786;2022-11-15T12:14:50;98564.41;;;13.28;100.00
73073;BME280;61260;51.090;-1.786;2022-11-15T12:17:26;98571.26;;;13.19;99.67
73073;BME280;61260;51.090;-1.786;2022-11-15T12:19:59;98568.58;;;13.08;99.93
73073;BME280;61260;51.090;-1.786;2022-11-15T12:22:36;98570.19;;;13.02;100.00
73073;BME280;61260;51.090;-1.786;2022-11-15T12:25:07;98573.92;;;12.97;100.00
73073;BME280;61260;51.090;-1.786;2022-11-15T12:27:40;98573.52;;;12.89;99.73
73073;BME280;61260;51.090;-1.786;2022-11-15T12:30:14;98570.48;;;12.78;99.84
73073;BME280;61260;51.090;-1.786;2022-11-15T12:32:52;98572.38;;;12.70;100.00
73073;BME280;61260;51.090;-1.786;2022-11-15T12:35:31;98574.05;;;12.65;100.00
73073;BME280;61260;51.090;-1.786;2022-11-15T12:38:03;98586.14;;;12.62;100.00
73073;BME280;61260;51.090;-1.786;2022-11-15T12:40:36;98591.17;;;12.60;100.00
73073;BME280;61260;51.090;-1.786;2022-11-15T12:46:10;98579.97;;;13.09;100.00
73073;BME280;61260;51.090;-1.786;2022-11-15T12:48:50;98582.91;;;13.34;100.00
73073;BME280;61260;51.090;-1.786;2022-11-15T12:51:21;98584.17;;;13.46;100.00
73073;BME280;61260;51.090;-1.786;2022-11-15T12:53:52;98590.54;;;13.50;100.00
73073;BME280;61260;51.090;-1.786;2022-11-15T12:56:23;98597.65;;;13.52;100.00
73073;BME280;61260;51.090;-1.786;2022-11-15T12:58:56;98601.46;;;13.47;99.99
73073;BME280;61260;51.090;-1.786;2022-11-15T13:01:55;98604.13;;;13.33;98.75
73073;BME280;61260;51.090;-1.786;2022-11-15T13:04:28;98606.98;;;13.17;98.70
73073;BME280;61260;51.090;-1.786;2022-11-15T13:06:59;98602.27;;;13.05;98.68
73073;BME280;61260;51.090;-1.786;2022-11-15T13:09:52;98610.14;;;12.98;99.65
73073;BME280;61260;51.090;-1.786;2022-11-15T13:12:52;98609.51;;;12.93;99.86
73073;BME280;61260;51.090;-1.786;2022-11-15T13:15:53;98607.83;;;12.96;100.00
73073;BME280;61260;51.090;-1.786;2022-11-15T13:18:39;98599.28;;;13.06;99.94
73073;BME280;61260;51.090;-1.786;2022-11-15T13:21:23;98596.74;;;13.01;98.58
73073;BME280;61260;51.090;-1.786;2022-11-15T13:24:17;98599.08;;;12.95;99.41